createdAt,value
2018-07-25T00:02:17.903Z,23.30
2018-07-25T00:04:46.474Z,23.20
2018-07-25T00:07:15.009Z,23.00
2018-07-25T00:12:11.990Z,23.10
2018-07-25T00:14:40.509Z,23.10
2018-07-25T00:17:09.054Z,23.00
2018-07-25T00:19:37.684Z,23.40
2018-07-25T00:22:06.267Z,23.30
2018-07-25T00:24:34.939Z,23.10
2018-07-25T00:27:03.511Z,23.20
2018-07-25T00:29:32.035Z,23.20
2018-07-25T00:32:00.681Z,23.00
2018-07-25T00:34:29.205Z,22.80
2018-07-25T00:36:57.740Z,22.70
2018-07-25T00:39:26.282Z,22.70
2018-07-25T00:41:54.830Z,23.20
2018-07-25T00:44:23.450Z,23.10
2018-07-25T00:46:52.101Z,22.90
2018-07-25T00:49:20.596Z,22.80
2018-07-25T00:51:49.151Z,22.80
2018-07-25T00:54:17.700Z,22.70
2018-07-25T00:56:46.205Z,22.50
2018-07-25T00:59:14.740Z,22.30
2018-07-25T01:01:43.305Z,22.10
2018-07-25T01:04:11.840Z,22.00
2018-07-25T01:06:40.376Z,22.00
2018-07-25T01:09:10.693Z,21.90
2018-07-25T01:11:39.234Z,22.00
2018-07-25T01:14:07.845Z,21.70
2018-07-25T01:16:36.460Z,21.60
2018-07-25T01:19:05.003Z,21.40
2018-07-25T01:21:33.543Z,21.40
2018-07-25T01:24:02.113Z,21.10
2018-07-25T01:26:30.637Z,21.00
2018-07-25T01:28:59.174Z,20.90
2018-07-25T01:31:28.643Z,20.80
2018-07-25T01:33:57.243Z,20.70
2018-07-25T01:36:25.794Z,20.50
2018-07-25T01:38:54.331Z,20.50
2018-07-25T01:41:22.846Z,20.40
2018-07-25T01:43:51.405Z,20.30
2018-07-25T01:46:20.000Z,20.30
2018-07-25T01:48:48.505Z,20.50
2018-07-25T01:51:17.029Z,20.50
2018-07-25T01:53:45.830Z,20.50
2018-07-25T01:56:14.342Z,20.60
2018-07-25T01:58:43.282Z,20.40
2018-07-25T02:01:11.801Z,20.20
2018-07-25T02:03:40.325Z,20.10
2018-07-25T02:06:08.882Z,20.20
2018-07-25T02:08:37.463Z,20.10
2018-07-25T02:11:06.084Z,20.00
2018-07-25T02:13:34.634Z,20.10
2018-07-25T02:16:03.185Z,20.40
2018-07-25T02:18:31.713Z,20.10
2018-07-25T02:21:00.232Z,20.10
2018-07-25T02:23:28.760Z,19.90
2018-07-25T02:25:57.293Z,19.90
2018-07-25T02:28:25.899Z,19.90
2018-07-25T02:30:55.075Z,19.70
2018-07-25T02:33:28.846Z,19.70
2018-07-25T02:36:06.209Z,19.70
2018-07-25T02:38:34.791Z,19.50
2018-07-25T02:41:03.357Z,19.40
2018-07-25T02:43:31.905Z,19.40
2018-07-25T02:46:00.421Z,19.20
2018-07-25T02:48:28.994Z,19.10
2018-07-25T02:50:57.578Z,19.00
2018-07-25T02:53:26.263Z,19.10
2018-07-25T02:55:54.809Z,19.20
2018-07-25T03:00:51.607Z,19.00
2018-07-25T03:03:20.123Z,18.90
2018-07-25T03:05:49.033Z,18.80
2018-07-25T03:08:17.549Z,18.70
2018-07-25T03:10:50.286Z,18.80
2018-07-25T03:13:18.803Z,18.90
2018-07-25T03:15:54.164Z,18.80
2018-07-25T03:18:22.720Z,18.90
2018-07-25T03:20:51.257Z,18.70
2018-07-25T03:23:19.925Z,18.70
2018-07-25T03:25:48.717Z,18.80
2018-07-25T03:28:17.261Z,18.70
2018-07-25T03:30:45.793Z,18.90
2018-07-25T03:33:14.292Z,18.90
2018-07-25T03:35:43.867Z,19.10
2018-07-25T03:38:12.570Z,18.90
2018-07-25T03:40:41.086Z,19.00
2018-07-25T03:43:09.576Z,18.80
2018-07-25T03:45:38.135Z,18.80
2018-07-25T03:48:07.143Z,18.90
2018-07-25T03:50:36.737Z,18.80
2018-07-25T03:53:05.995Z,18.80
2018-07-25T03:55:34.560Z,18.80
2018-07-25T03:58:03.403Z,18.90
2018-07-25T04:00:32.143Z,18.90
2018-07-25T04:03:00.946Z,19.00
2018-07-25T04:05:29.482Z,19.10
2018-07-25T04:07:58.709Z,19.10
2018-07-25T04:10:27.233Z,19.20
2018-07-25T04:12:56.179Z,19.30
2018-07-25T04:15:24.735Z,19.30
2018-07-25T04:17:54.242Z,19.40
2018-07-25T04:20:22.775Z,19.50
2018-07-25T04:22:51.332Z,19.40
2018-07-25T04:25:19.864Z,19.40
2018-07-25T04:27:48.385Z,19.40
2018-07-25T04:30:17.760Z,19.60
2018-07-25T04:32:46.636Z,19.60
2018-07-25T04:35:16.441Z,19.70
2018-07-25T04:37:45.367Z,19.60
2018-07-25T04:40:13.904Z,19.60
2018-07-25T04:42:42.540Z,19.70
2018-07-25T04:45:12.548Z,19.80
2018-07-25T04:47:41.039Z,19.80
2018-07-25T04:50:09.601Z,19.90
2018-07-25T04:52:38.509Z,20.10
2018-07-25T04:55:07.027Z,20.20
2018-07-25T05:00:04.032Z,20.30
2018-07-25T05:02:32.577Z,20.50
2018-07-25T05:05:01.150Z,20.50
2018-07-25T05:07:29.741Z,20.70
2018-07-25T05:09:58.271Z,20.90
2018-07-25T05:12:26.839Z,20.90
2018-07-25T05:14:55.382Z,21.10
2018-07-25T05:17:23.916Z,21.20
2018-07-25T05:19:52.419Z,21.40
2018-07-25T05:22:20.967Z,21.60
2018-07-25T05:24:49.522Z,21.70
2018-07-25T05:27:18.684Z,21.90
2018-07-25T05:29:47.244Z,22.00
2018-07-25T05:32:15.754Z,22.10
2018-07-25T05:34:44.325Z,22.30
2018-07-25T05:37:13.104Z,22.50
2018-07-25T05:39:41.653Z,22.80
2018-07-25T05:42:10.184Z,22.90
2018-07-25T05:44:38.737Z,23.00
2018-07-25T05:47:07.310Z,23.10
2018-07-25T05:49:35.828Z,23.20
2018-07-25T05:52:04.539Z,23.40
2018-07-25T05:54:33.075Z,23.50
2018-07-25T05:57:01.603Z,23.50
2018-07-25T05:59:30.140Z,23.60
2018-07-25T06:01:58.773Z,23.80
2018-07-25T06:04:27.387Z,23.80
2018-07-25T06:06:56.017Z,24.20
2018-07-25T06:09:25.640Z,24.30
2018-07-25T06:11:54.173Z,24.40
2018-07-25T06:14:22.888Z,24.40
2018-07-25T06:16:51.573Z,24.40
2018-07-25T06:59:32.107Z,25.30
2018-07-25T07:02:00.711Z,25.50
2018-07-25T07:04:29.296Z,27.00
2018-07-25T07:06:57.928Z,25.90
2018-07-25T07:09:26.408Z,26.40
2018-07-25T07:11:54.944Z,25.90
2018-07-25T07:14:23.666Z,25.50
2018-07-25T07:16:52.226Z,25.40
2018-07-25T07:19:21.608Z,25.40
2018-07-25T07:21:53.261Z,26.20
2018-07-25T07:24:21.804Z,27.00
2018-07-25T07:26:50.392Z,26.90
2018-07-25T07:29:19.050Z,26.80
2018-07-25T07:31:47.625Z,26.50
2018-07-25T07:34:16.137Z,27.60
2018-07-25T07:36:44.696Z,27.70
2018-07-25T07:39:15.252Z,27.80
2018-07-25T07:44:12.367Z,28.30
2018-07-25T07:46:40.915Z,28.80
2018-07-25T07:49:09.496Z,28.40
2018-07-25T07:51:38.076Z,28.10
2018-07-25T07:54:06.727Z,28.10
2018-07-25T07:56:35.316Z,28.20
2018-07-25T07:59:03.999Z,28.00
2018-07-25T08:01:32.568Z,27.90
2018-07-25T08:04:01.844Z,28.50
2018-07-25T08:06:30.434Z,28.50
2018-07-25T08:08:59.021Z,28.30
2018-07-25T08:11:27.541Z,29.20
2018-07-25T08:13:56.107Z,28.80
2018-07-25T08:16:24.621Z,28.60
2018-07-25T08:18:53.185Z,28.80
2018-07-25T08:21:21.851Z,28.40
2018-07-25T08:23:50.386Z,29.10
2018-07-25T08:26:18.943Z,29.10
2018-07-25T08:28:47.656Z,29.80
2018-07-25T08:31:16.255Z,29.90
2018-07-25T08:33:44.791Z,29.00
2018-07-25T08:36:13.387Z,30.20
2018-07-25T08:47:10.007Z,31.00
2018-07-25T08:49:38.703Z,31.20
2018-07-25T08:52:07.235Z,31.10
2018-07-25T08:54:35.763Z,30.20
2018-07-25T08:57:04.293Z,31.00
2018-07-25T08:59:32.810Z,32.10
2018-07-25T09:02:01.410Z,30.70
2018-07-25T09:04:29.909Z,30.80
2018-07-25T09:09:26.659Z,31.30
2018-07-25T09:11:55.180Z,31.40
2018-07-25T09:14:23.700Z,31.60
2018-07-25T09:16:52.250Z,31.70
2018-07-25T09:19:20.765Z,31.20
2018-07-25T09:21:49.278Z,31.80
2018-07-25T09:24:17.803Z,31.50
2018-07-25T09:26:46.321Z,32.40
2018-07-25T09:29:14.820Z,32.10
2018-07-25T09:31:43.351Z,33.00
2018-07-25T09:34:11.906Z,32.30
2018-07-25T09:36:40.420Z,32.30
2018-07-25T09:39:10.623Z,33.10
2018-07-25T09:41:39.158Z,33.10
2018-07-25T09:44:07.732Z,32.40
2018-07-25T09:46:36.390Z,32.20
2018-07-25T09:49:04.971Z,32.20
2018-07-25T09:51:33.554Z,32.20
2018-07-25T09:54:02.235Z,32.40
2018-07-25T09:56:30.772Z,32.70
2018-07-25T09:58:59.362Z,32.40
2018-07-25T10:01:27.864Z,33.20
2018-07-25T10:03:56.538Z,33.70
2018-07-25T10:06:25.069Z,32.50
2018-07-25T10:08:53.642Z,33.30
2018-07-25T10:11:23.584Z,33.70
2018-07-25T10:13:53.176Z,32.90
2018-07-25T10:16:21.739Z,33.30
2018-07-25T10:18:50.567Z,34.10
2018-07-25T10:21:19.177Z,33.60
2018-07-25T10:23:47.778Z,33.20
2018-07-25T10:26:16.344Z,33.60
2018-07-25T10:31:13.156Z,34.00
2018-07-25T10:33:41.728Z,33.60
2018-07-25T10:36:10.267Z,33.40
2018-07-25T10:38:38.804Z,33.40
2018-07-25T10:41:07.369Z,32.80
2018-07-25T10:43:35.908Z,33.50
2018-07-25T10:46:04.491Z,33.60
2018-07-25T10:48:33.100Z,32.90
2018-07-25T10:51:01.666Z,33.70
2018-07-25T10:53:30.256Z,34.10
2018-07-25T10:55:58.867Z,33.60
2018-07-25T10:58:27.398Z,33.70
2018-07-25T11:00:56.024Z,34.60
2018-07-25T11:05:52.815Z,34.60
2018-07-25T11:08:21.389Z,35.00
2018-07-25T11:10:49.950Z,34.40
2018-07-25T11:13:18.464Z,34.20
2018-07-25T11:15:46.999Z,35.20
2018-07-25T11:18:15.621Z,34.30
2018-07-25T11:20:44.163Z,34.60
2018-07-25T11:23:12.909Z,35.20
2018-07-25T11:25:41.314Z,35.70
2018-07-25T11:28:09.857Z,35.20
2018-07-25T11:30:38.422Z,34.50
2018-07-25T11:33:06.959Z,34.00
2018-07-25T11:35:35.491Z,33.90
2018-07-25T11:40:32.238Z,35.20
2018-07-25T11:43:00.747Z,35.30
2018-07-25T11:45:29.280Z,35.20
2018-07-25T11:47:57.835Z,34.80
2018-07-25T11:50:26.417Z,35.10
2018-07-25T11:52:55.266Z,34.80
2018-07-25T11:55:23.935Z,36.10
2018-07-25T11:57:52.446Z,36.50
2018-07-25T12:02:49.243Z,36.30
2018-07-25T12:05:17.838Z,35.00
2018-07-25T12:07:46.440Z,36.90
2018-07-25T12:10:15.041Z,36.50
2018-07-25T12:12:43.593Z,38.60
2018-07-25T12:15:12.271Z,38.40
2018-07-25T12:17:40.850Z,34.10
2018-07-25T12:20:09.454Z,33.00
2018-07-25T12:22:38.008Z,34.00
2018-07-25T12:25:07.305Z,37.70
2018-07-25T12:27:35.926Z,40.00
2018-07-25T12:30:04.971Z,38.50
2018-07-25T12:32:33.511Z,36.20
2018-07-25T12:35:02.057Z,38.40
2018-07-25T12:37:30.633Z,41.10
2018-07-25T12:39:59.241Z,40.20
2018-07-25T12:42:27.838Z,40.90
2018-07-25T12:44:56.385Z,41.70
2018-07-25T12:47:24.956Z,39.20
2018-07-25T12:49:53.615Z,40.50
2018-07-25T12:54:50.517Z,36.60
2018-07-25T12:57:19.341Z,37.00
2018-07-25T12:59:47.942Z,34.70
2018-07-25T13:02:16.521Z,34.00
2018-07-25T13:04:45.098Z,34.00
2018-07-25T13:07:13.700Z,33.70
2018-07-25T13:09:42.295Z,33.80
2018-07-25T13:12:10.873Z,39.30
2018-07-25T13:19:35.970Z,42.10
2018-07-25T13:22:04.688Z,40.60
2018-07-25T13:24:33.463Z,39.00
2018-07-25T13:27:02.103Z,40.20
2018-07-25T13:29:30.692Z,39.40
2018-07-25T13:31:59.225Z,40.20
2018-07-25T13:34:27.779Z,40.00
2018-07-25T13:36:56.359Z,40.30
2018-07-25T13:39:24.841Z,41.20
2018-07-25T13:41:53.375Z,36.60
2018-07-25T13:46:50.181Z,36.20
2018-07-25T13:49:19.051Z,35.60
2018-07-25T13:51:47.608Z,36.90
2018-07-25T13:54:16.251Z,39.10
2018-07-25T13:56:44.796Z,35.40
2018-07-25T13:59:13.394Z,35.20
2018-07-25T14:01:41.937Z,34.80
2018-07-25T14:04:10.489Z,34.70
2018-07-25T14:06:39.040Z,37.00
2018-07-25T14:09:09.046Z,40.20
2018-07-25T14:11:37.612Z,39.80
2018-07-25T14:16:34.485Z,36.20
2018-07-25T14:19:03.074Z,37.10
2018-07-25T14:21:31.661Z,38.10
2018-07-25T14:24:00.312Z,34.80
2018-07-25T14:26:28.711Z,35.10
2018-07-25T14:28:57.374Z,37.80
2018-07-25T14:31:25.909Z,38.70
2018-07-25T14:33:54.519Z,39.40
2018-07-25T14:36:23.184Z,41.70
2018-07-25T14:38:51.787Z,40.60
2018-07-25T14:41:20.375Z,39.10
2018-07-25T14:43:49.009Z,40.10
2018-07-25T14:46:17.675Z,39.80
2018-07-25T14:48:46.356Z,37.80
2018-07-25T14:51:14.967Z,40.10
2018-07-25T14:53:43.508Z,39.30
2018-07-25T14:56:12.103Z,40.00
2018-07-25T14:58:40.790Z,39.50
2018-07-25T15:01:09.330Z,38.90
2018-07-25T15:03:37.938Z,40.00
2018-07-25T15:06:06.548Z,39.50
2018-07-25T15:08:35.143Z,40.50
2018-07-25T15:11:03.757Z,39.60
2018-07-25T15:13:32.347Z,40.10
2018-07-25T15:16:00.966Z,38.60
2018-07-25T15:18:29.536Z,39.10
2018-07-25T15:20:58.131Z,39.30
2018-07-25T15:24:03.189Z,39.30
2018-07-25T15:26:31.796Z,39.00
2018-07-25T15:29:01.297Z,38.90
2018-07-25T15:31:29.829Z,39.00
2018-07-25T15:33:58.433Z,39.00
2018-07-25T15:36:43.025Z,40.20
2018-07-25T15:39:14.458Z,39.70
2018-07-25T15:41:44.455Z,39.00
2018-07-25T15:44:13.027Z,38.80
2018-07-25T15:46:42.113Z,37.10
2018-07-25T15:49:10.700Z,34.90
2018-07-25T15:51:39.922Z,36.70
2018-07-25T15:54:08.722Z,38.20
2018-07-25T15:56:38.117Z,38.70
2018-07-25T15:59:07.057Z,37.40
2018-07-25T16:01:35.674Z,37.50
2018-07-25T16:04:04.383Z,37.40
2018-07-25T16:06:32.979Z,35.70
2018-07-25T16:09:01.646Z,34.10
2018-07-25T16:11:30.232Z,33.20
2018-07-25T16:13:58.787Z,33.10
2018-07-25T16:16:27.483Z,33.10
2018-07-25T16:18:56.067Z,32.90
2018-07-25T16:21:24.670Z,32.90
2018-07-25T16:23:53.357Z,32.80
2018-07-25T16:26:21.916Z,32.50
2018-07-25T16:28:50.489Z,32.40
2018-07-25T16:31:19.093Z,32.80
2018-07-25T16:33:47.637Z,33.10
2018-07-25T16:36:16.248Z,32.70
2018-07-25T16:38:44.829Z,32.40
2018-07-25T16:41:13.385Z,32.10
2018-07-25T16:43:41.930Z,32.10
2018-07-25T16:46:10.577Z,31.90
2018-07-25T16:48:39.113Z,31.90
2018-07-25T16:51:07.732Z,31.80
2018-07-25T16:53:36.282Z,31.90
2018-07-25T16:56:05.260Z,32.00
2018-07-25T16:58:33.910Z,32.20
2018-07-25T17:01:02.582Z,32.20
2018-07-25T17:03:31.233Z,32.60
2018-07-25T17:05:59.821Z,32.80
2018-07-25T17:08:28.507Z,33.20
2018-07-25T17:10:57.090Z,32.80
2018-07-25T17:13:25.632Z,33.30
2018-07-25T17:15:54.189Z,32.80
2018-07-25T17:18:22.939Z,33.20
2018-07-25T17:20:52.867Z,33.00
2018-07-25T17:23:21.405Z,32.80
2018-07-25T17:25:49.964Z,32.80
2018-07-25T17:28:18.521Z,32.30
2018-07-25T17:30:47.435Z,32.30
2018-07-25T17:33:16.799Z,32.10
2018-07-25T17:35:45.357Z,31.50
2018-07-25T17:38:14.095Z,31.40
2018-07-25T17:40:42.738Z,31.20
2018-07-25T17:43:11.313Z,31.10
2018-07-25T17:45:39.912Z,30.60
2018-07-25T17:48:08.512Z,29.60
2018-07-25T17:50:37.023Z,26.00
2018-07-25T17:53:05.990Z,30.70
2018-07-25T17:55:34.559Z,30.90
2018-07-25T17:58:03.098Z,28.90
2018-07-25T18:00:31.661Z,27.00
2018-07-25T18:03:00.252Z,27.20
2018-07-25T18:05:28.827Z,26.80
2018-07-25T18:10:25.627Z,27.50
2018-07-25T18:12:58.566Z,27.50
2018-07-25T18:15:27.081Z,27.20
2018-07-25T18:17:55.643Z,27.10
2018-07-25T18:20:24.233Z,27.00
2018-07-25T18:22:52.820Z,26.60
2018-07-25T18:25:21.309Z,26.80
2018-07-25T18:27:49.963Z,26.60
2018-07-25T18:30:18.559Z,26.40
2018-07-25T18:32:47.069Z,26.40
2018-07-25T18:35:15.666Z,26.10
2018-07-25T18:37:44.251Z,26.20
2018-07-25T18:40:12.801Z,25.90
2018-07-25T18:42:41.377Z,26.00
2018-07-25T18:45:10.016Z,25.90
2018-07-25T18:47:38.550Z,25.80
2018-07-25T18:50:08.800Z,25.20
2018-07-25T18:52:37.381Z,25.20
2018-07-25T18:55:06.052Z,24.50
2018-07-25T18:57:34.638Z,24.70
2018-07-25T19:00:03.201Z,24.60
2018-07-25T19:02:31.742Z,24.00
2018-07-25T19:05:00.324Z,24.50
2018-07-25T19:07:28.949Z,24.40
2018-07-25T19:09:57.515Z,24.40
2018-07-25T19:12:26.172Z,24.40
2018-07-25T19:15:00.118Z,24.10
2018-07-25T19:17:28.675Z,24.20
2018-07-25T19:19:57.251Z,24.40
2018-07-25T19:22:25.816Z,24.10
2018-07-25T19:24:54.398Z,24.00
2018-07-25T19:27:22.984Z,23.70
2018-07-25T19:29:51.507Z,23.90
2018-07-25T19:32:20.075Z,23.90
2018-07-25T19:34:48.599Z,23.90
2018-07-25T19:37:17.164Z,24.20
2018-07-25T19:39:45.750Z,24.10
2018-07-25T19:42:14.336Z,24.20
2018-07-25T19:44:42.870Z,23.80
2018-07-25T19:47:11.761Z,23.90
2018-07-25T19:49:40.316Z,24.00
2018-07-25T19:52:08.844Z,23.90
2018-07-25T19:54:37.465Z,23.90
2018-07-25T19:57:06.001Z,24.00
2018-07-25T19:59:34.513Z,24.00
2018-07-25T20:02:03.115Z,24.00
2018-07-25T20:11:19.690Z,23.90
2018-07-25T20:13:53.565Z,23.80
2018-07-25T20:16:22.169Z,23.80
2018-07-25T20:18:50.670Z,23.80
2018-07-25T20:21:19.251Z,23.70
2018-07-25T20:23:47.855Z,23.70
2018-07-25T20:26:16.375Z,23.70
2018-07-25T20:28:44.902Z,23.70
2018-07-25T20:31:13.460Z,23.70
2018-07-25T20:33:41.957Z,23.50
2018-07-25T20:36:10.483Z,23.50
2018-07-25T20:38:39.148Z,23.40
2018-07-25T20:41:07.828Z,23.00
2018-07-25T20:43:36.366Z,23.00
2018-07-25T20:46:05.168Z,22.90
2018-07-25T20:48:33.703Z,23.00
2018-07-25T20:51:02.240Z,22.90
2018-07-25T20:53:30.778Z,22.80
2018-07-25T20:55:59.302Z,22.80
2018-07-25T20:58:28.085Z,22.80
2018-07-25T21:00:56.696Z,22.80
2018-07-25T21:03:25.859Z,22.60
2018-07-25T21:05:54.392Z,22.60
2018-07-25T21:08:22.954Z,22.60
2018-07-25T21:10:51.502Z,22.50
2018-07-25T21:13:20.028Z,22.30
2018-07-25T21:15:48.599Z,22.00
2018-07-25T21:18:17.165Z,21.80
2018-07-25T21:20:45.729Z,21.90
2018-07-25T21:23:14.280Z,21.90
2018-07-25T21:25:42.817Z,21.90
2018-07-25T21:28:11.442Z,21.80
2018-07-25T21:30:40.012Z,21.90
2018-07-25T21:33:08.649Z,22.20
2018-07-25T21:35:37.248Z,21.90
2018-07-25T21:38:05.806Z,21.90
2018-07-25T21:40:34.347Z,21.90
2018-07-25T21:43:02.899Z,21.70
2018-07-25T21:45:31.446Z,21.60
2018-07-25T21:47:59.958Z,21.60
2018-07-25T21:50:28.538Z,21.50
2018-07-25T21:52:57.073Z,21.50
2018-07-25T21:55:25.635Z,21.50
2018-07-25T21:57:54.155Z,21.50
2018-07-25T22:00:22.944Z,21.50
2018-07-25T22:02:51.579Z,21.70
2018-07-25T22:05:20.130Z,21.80
2018-07-25T22:07:49.374Z,21.80
2018-07-25T22:10:17.959Z,21.80
2018-07-25T22:12:46.488Z,21.80
2018-07-25T22:15:15.044Z,21.70
2018-07-25T22:17:43.713Z,21.70
2018-07-25T22:20:13.211Z,21.80
2018-07-25T22:22:41.826Z,22.60
2018-07-25T22:25:10.787Z,22.70
2018-07-25T22:27:40.123Z,22.20
2018-07-25T22:30:09.008Z,21.90
2018-07-25T22:32:37.538Z,21.80
2018-07-25T22:35:06.154Z,21.80
2018-07-25T22:37:34.736Z,21.40
2018-07-25T22:40:03.282Z,21.30
2018-07-25T22:42:31.882Z,21.30
2018-07-25T22:45:00.425Z,21.30
2018-07-25T22:47:28.947Z,21.20
2018-07-25T22:49:57.479Z,21.20
2018-07-25T22:52:26.058Z,21.20
2018-07-25T22:54:54.575Z,21.30
2018-07-25T22:57:23.272Z,21.10
2018-07-25T22:59:51.836Z,20.90
2018-07-25T23:02:20.359Z,20.80
2018-07-25T23:04:48.925Z,20.80
2018-07-25T23:07:17.551Z,20.70
2018-07-25T23:09:46.133Z,20.60
2018-07-25T23:12:14.663Z,20.50
2018-07-25T23:14:43.890Z,20.80
2018-07-25T23:19:40.598Z,20.50
2018-07-25T23:22:09.114Z,20.60
2018-07-25T23:24:37.617Z,20.50
2018-07-25T23:27:06.119Z,20.50
2018-07-25T23:29:34.677Z,20.40
2018-07-25T23:32:03.297Z,20.40
2018-07-25T23:34:31.799Z,20.40
2018-07-25T23:37:00.346Z,20.50
2018-07-25T23:39:28.870Z,20.50
2018-07-25T23:41:57.355Z,20.40
2018-07-25T23:44:26.013Z,20.50
2018-07-25T23:46:54.521Z,20.40
2018-07-25T23:49:23.067Z,20.40
2018-07-25T23:51:51.612Z,20.40
2018-07-25T23:54:20.131Z,20.40
2018-07-25T23:56:48.652Z,20.40
2018-07-25T23:59:17.197Z,20.20
